createdAt,value
2018-06-23T00:00:18.906Z,2.87
2018-06-23T00:02:22.917Z,3.57
2018-06-23T00:04:27.177Z,2.33
2018-06-23T00:06:31.439Z,3.10
2018-06-23T00:08:35.438Z,3.07
2018-06-23T00:10:39.766Z,3.93
2018-06-23T00:12:44.083Z,4.00
2018-06-23T00:14:48.349Z,2.40
2018-06-23T00:16:52.971Z,2.60
2018-06-23T00:18:57.080Z,4.43
2018-06-23T00:21:01.301Z,3.30
2018-06-23T00:23:06.079Z,2.63
2018-06-23T00:25:13.177Z,3.33
2018-06-23T00:27:17.820Z,3.43
2018-06-23T00:29:22.138Z,3.00
2018-06-23T00:31:26.706Z,2.07
2018-06-23T00:33:30.971Z,1.70
2018-06-23T00:35:35.390Z,2.80
2018-06-23T00:37:39.938Z,2.50
2018-06-23T00:39:44.230Z,2.33
2018-06-23T00:41:48.497Z,3.43
2018-06-23T00:43:52.759Z,2.10
2018-06-23T00:45:57.053Z,3.00
2018-06-23T00:48:01.021Z,2.63
2018-06-23T00:50:05.289Z,1.63
2018-06-23T00:52:09.739Z,3.03
2018-06-23T00:54:14.542Z,2.47
2018-06-23T00:56:18.832Z,3.40
2018-06-23T00:58:23.105Z,2.77
2018-06-23T01:00:27.558Z,2.80
2018-06-23T01:02:31.565Z,3.33
2018-06-23T01:04:36.481Z,2.20
2018-06-23T01:06:40.755Z,3.30
2018-06-23T01:08:45.008Z,2.40
2018-06-23T01:10:49.676Z,1.53
2018-06-23T01:12:54.442Z,3.60
2018-06-23T01:14:59.059Z,2.97
2018-06-23T01:17:03.674Z,2.97
2018-06-23T01:19:07.661Z,4.60
2018-06-23T01:21:12.029Z,2.50
2018-06-23T01:23:16.341Z,2.10
2018-06-23T01:25:20.337Z,3.37
2018-06-23T01:27:24.590Z,3.40
2018-06-23T01:29:29.478Z,2.27
2018-06-23T01:31:33.438Z,2.30
2018-06-23T01:33:37.737Z,2.93
2018-06-23T01:35:42.017Z,2.43
2018-06-23T01:37:46.596Z,2.60
2018-06-23T01:39:50.841Z,1.70
2018-06-23T01:41:55.105Z,4.50
2018-06-23T01:43:59.401Z,2.80
2018-06-23T01:46:03.698Z,1.97
2018-06-23T01:48:08.023Z,2.13
2018-06-23T01:50:11.994Z,2.77
2018-06-23T01:52:15.999Z,2.57
2018-06-23T01:54:20.566Z,1.57
2018-06-23T01:56:25.148Z,2.53
2018-06-23T01:58:29.425Z,2.67
2018-06-23T02:00:33.767Z,1.50
2018-06-23T02:02:38.102Z,2.40
2018-06-23T02:04:42.412Z,2.30
2018-06-23T02:06:46.722Z,2.67
2018-06-23T02:08:51.045Z,2.80
2018-06-23T02:10:55.309Z,1.83
2018-06-23T02:13:00.288Z,1.80
2018-06-23T02:15:10.289Z,1.90
2018-06-23T02:17:19.950Z,2.53
2018-06-23T02:19:29.993Z,1.73
2018-06-23T02:21:39.809Z,1.53
2018-06-23T02:23:49.713Z,1.60
2018-06-23T02:25:59.770Z,1.20
2018-06-23T02:28:09.706Z,2.23
2018-06-23T02:30:19.579Z,1.70
2018-06-23T02:32:29.250Z,1.80
2018-06-23T02:34:39.197Z,2.10
2018-06-23T02:36:43.264Z,2.03
2018-06-23T02:38:47.538Z,2.03
2018-06-23T02:40:51.866Z,1.97
2018-06-23T02:42:56.418Z,1.33
2018-06-23T02:45:01.311Z,1.33
2018-06-23T02:47:05.477Z,1.57
2018-06-23T02:49:09.861Z,1.40
2018-06-23T02:51:14.260Z,1.00
2018-06-23T02:53:18.214Z,1.87
2018-06-23T02:55:22.817Z,1.87
2018-06-23T02:57:27.574Z,1.40
2018-06-23T02:59:31.537Z,1.90
2018-06-23T03:01:35.794Z,1.83
2018-06-23T03:03:40.093Z,2.03
2018-06-23T03:05:44.322Z,2.20
2018-06-23T03:07:48.609Z,2.03
2018-06-23T03:09:52.687Z,1.57
2018-06-23T03:11:56.657Z,1.70
2018-06-23T03:14:00.922Z,1.60
2018-06-23T03:16:05.821Z,2.03
2018-06-23T03:18:09.741Z,1.70
2018-06-23T03:20:13.993Z,2.27
2018-06-23T03:22:18.933Z,1.33
2018-06-23T03:24:23.037Z,1.87
2018-06-23T03:26:27.026Z,1.90
2018-06-23T03:28:31.271Z,1.27
2018-06-23T03:30:35.517Z,1.10
2018-06-23T03:32:39.774Z,2.90
2018-06-23T03:34:44.243Z,1.40
2018-06-23T03:36:48.511Z,1.67
2018-06-23T03:38:52.790Z,1.57
2018-06-23T03:40:57.389Z,1.00
2018-06-23T03:43:01.325Z,1.20
2018-06-23T03:45:05.326Z,1.40
2018-06-23T03:47:09.645Z,1.57
2018-06-23T03:49:13.926Z,1.20
2018-06-23T03:51:17.891Z,2.10
2018-06-23T03:53:22.175Z,1.43
2018-06-23T03:55:26.469Z,2.00
2018-06-23T03:57:30.711Z,1.73
2018-06-23T03:59:34.981Z,3.20
2018-06-23T04:01:38.958Z,1.57
2018-06-23T04:03:43.337Z,1.27
2018-06-23T04:05:48.434Z,1.03
2018-06-23T04:07:52.698Z,1.50
2018-06-23T04:09:57.034Z,1.10
2018-06-23T04:12:01.279Z,1.50
2018-06-23T04:14:06.154Z,1.97
2018-06-23T04:16:10.730Z,1.13
2018-06-23T04:18:15.037Z,2.20
2018-06-23T04:20:19.352Z,1.70
2018-06-23T04:22:23.568Z,1.67
2018-06-23T04:24:28.325Z,1.20
2018-06-23T04:26:32.653Z,1.63
2018-06-23T04:28:36.902Z,1.87
2018-06-23T04:30:41.169Z,1.30
2018-06-23T04:32:45.420Z,1.23
2018-06-23T04:34:49.658Z,1.57
2018-06-23T04:36:54.007Z,2.00
2018-06-23T04:38:58.297Z,1.50
2018-06-23T04:41:02.300Z,2.07
2018-06-23T04:43:06.602Z,1.60
2018-06-23T04:45:10.842Z,1.83
2018-06-23T04:47:15.098Z,1.43
2018-06-23T04:49:19.402Z,1.73
2018-06-23T04:51:23.677Z,0.97
2018-06-23T04:53:27.975Z,1.73
2018-06-23T04:55:32.158Z,1.83
2018-06-23T04:57:36.394Z,1.70
2018-06-23T04:59:40.433Z,1.57
2018-06-23T05:01:45.025Z,1.47
2018-06-23T05:03:49.001Z,1.20
2018-06-23T05:05:53.247Z,2.40
2018-06-23T05:07:58.167Z,1.27
2018-06-23T05:10:02.770Z,1.83
2018-06-23T05:12:07.048Z,1.63
2018-06-23T05:14:11.650Z,1.10
2018-06-23T05:16:15.673Z,1.90
2018-06-23T05:18:19.978Z,2.30
2018-06-23T05:20:24.237Z,2.20
2018-06-23T05:22:28.815Z,1.43
2018-06-23T05:24:33.078Z,1.43
2018-06-23T05:26:37.405Z,1.63
2018-06-23T05:28:41.389Z,1.53
2018-06-23T05:30:45.823Z,1.67
2018-06-23T05:32:49.780Z,1.50
2018-06-23T05:34:54.143Z,2.17
2018-06-23T05:36:58.546Z,2.20
2018-06-23T05:39:03.145Z,1.63
2018-06-23T05:41:07.183Z,2.17
2018-06-23T05:43:11.790Z,2.47
2018-06-23T05:45:15.759Z,1.57
2018-06-23T05:47:20.012Z,2.40
2018-06-23T05:49:24.341Z,1.83
2018-06-23T05:51:28.717Z,2.03
2018-06-23T05:53:33.285Z,1.90
2018-06-23T05:55:37.576Z,1.83
2018-06-23T05:57:42.011Z,2.10
2018-06-23T05:59:46.280Z,1.70
2018-06-23T06:01:50.734Z,1.90
2018-06-23T06:03:54.854Z,1.87
2018-06-23T06:05:58.850Z,1.60
2018-06-23T06:08:03.171Z,1.53
2018-06-23T06:10:08.321Z,1.30
2018-06-23T06:12:14.026Z,1.43
2018-06-23T06:14:19.665Z,1.53
2018-06-23T06:16:30.493Z,1.63
2018-06-23T06:18:34.561Z,1.80
2018-06-23T06:20:39.009Z,1.70
2018-06-23T06:22:44.486Z,1.83
2018-06-23T06:24:49.102Z,1.47
2018-06-23T06:26:53.152Z,1.70
2018-06-23T06:28:57.085Z,1.40
2018-06-23T06:31:01.195Z,1.50
2018-06-23T06:33:05.582Z,1.80
2018-06-23T06:35:09.794Z,1.90
2018-06-23T06:37:14.515Z,1.50
2018-06-23T06:39:18.846Z,1.73
2018-06-23T06:41:23.114Z,1.90
2018-06-23T06:43:27.697Z,1.60
2018-06-23T06:45:32.281Z,1.30
2018-06-23T06:47:36.614Z,1.47
2018-06-23T06:49:40.606Z,1.80
2018-06-23T06:51:44.964Z,1.60
2018-06-23T06:53:48.758Z,1.37
2018-06-23T06:55:52.970Z,1.90
2018-06-23T06:57:57.145Z,1.90
2018-06-23T07:00:01.178Z,2.13
2018-06-23T07:02:05.301Z,2.30
2018-06-23T07:04:09.818Z,2.40
2018-06-23T07:06:14.517Z,1.93
2018-06-23T07:08:18.489Z,1.33
2018-06-23T07:10:22.823Z,2.40
2018-06-23T07:12:26.781Z,2.40
2018-06-23T07:14:31.130Z,1.70
2018-06-23T07:16:35.662Z,2.03
2018-06-23T07:18:39.663Z,1.90
2018-06-23T07:20:43.679Z,1.70
2018-06-23T07:22:47.738Z,2.90
2018-06-23T07:24:51.762Z,2.00
2018-06-23T07:26:56.148Z,1.83
2018-06-23T07:29:00.554Z,1.67
2018-06-23T07:31:04.818Z,2.30
2018-06-23T07:33:09.441Z,2.00
2018-06-23T07:35:13.784Z,1.83
2018-06-23T07:37:18.501Z,1.70
2018-06-23T07:39:22.778Z,1.87
2018-06-23T07:41:27.508Z,2.23
2018-06-23T07:43:31.490Z,1.80
2018-06-23T07:45:35.767Z,2.70
2018-06-23T07:47:40.032Z,1.97
2018-06-23T07:49:44.281Z,1.93
2018-06-23T07:51:48.694Z,2.40
2018-06-23T07:53:53.030Z,2.30
2018-06-23T07:55:57.615Z,2.83
2018-06-23T07:58:02.846Z,2.40
2018-06-23T08:00:07.130Z,1.70
2018-06-23T08:02:11.118Z,1.67
2018-06-23T08:04:15.377Z,1.97
2018-06-23T08:06:19.975Z,1.60
2018-06-23T08:08:23.991Z,2.27
2018-06-23T08:10:28.222Z,2.17
2018-06-23T08:12:32.727Z,2.90
2018-06-23T08:14:36.710Z,2.37
2018-06-23T08:16:40.847Z,2.43
2018-06-23T08:18:45.186Z,2.10
2018-06-23T08:20:49.521Z,1.90
2018-06-23T08:22:53.915Z,2.70
2018-06-23T08:24:58.274Z,2.40
2018-06-23T08:27:02.839Z,3.10
2018-06-23T08:29:07.498Z,2.13
2018-06-23T08:31:11.580Z,2.73
2018-06-23T08:33:16.183Z,2.60
2018-06-23T08:35:20.770Z,1.47
2018-06-23T08:37:25.357Z,2.07
2018-06-23T08:39:29.654Z,2.30
2018-06-23T08:41:34.274Z,2.83
2018-06-23T08:43:38.591Z,2.90
2018-06-23T08:45:42.993Z,2.23
2018-06-23T08:47:47.281Z,2.77
2018-06-23T08:49:51.635Z,2.73
2018-06-23T08:51:55.905Z,3.40
2018-06-23T08:54:00.175Z,1.60
2018-06-23T08:56:05.126Z,2.17
2018-06-23T08:58:09.229Z,4.10
2018-06-23T09:00:13.716Z,2.20
2018-06-23T09:02:18.199Z,3.00
2018-06-23T09:04:22.196Z,1.97
2018-06-23T09:06:26.586Z,2.70
2018-06-23T09:08:30.873Z,2.23
2018-06-23T09:10:35.286Z,1.67
2018-06-23T09:12:40.229Z,2.33
2018-06-23T09:14:44.474Z,2.77
2018-06-23T09:16:48.714Z,2.93
2018-06-23T09:18:53.795Z,2.10
2018-06-23T09:20:58.073Z,2.03
2018-06-23T09:23:02.327Z,2.00
2018-06-23T09:25:07.026Z,1.63
2018-06-23T09:27:11.614Z,1.63
2018-06-23T09:29:15.921Z,1.63
2018-06-23T09:31:20.217Z,1.77
2018-06-23T09:33:24.536Z,2.40
2018-06-23T09:35:28.849Z,1.90
2018-06-23T09:37:33.093Z,1.80
2018-06-23T09:39:37.438Z,2.00
2018-06-23T09:41:41.713Z,1.93
2018-06-23T09:43:45.699Z,1.60
2018-06-23T09:45:50.108Z,1.63
2018-06-23T09:47:54.546Z,2.03
2018-06-23T09:49:58.828Z,1.30
2018-06-23T09:52:03.450Z,2.50
2018-06-23T09:54:07.966Z,2.40
2018-06-23T09:56:12.024Z,2.33
2018-06-23T09:58:16.158Z,1.33
2018-06-23T10:00:24.689Z,1.93
2018-06-23T10:02:28.973Z,2.43
2018-06-23T10:04:33.563Z,2.40
2018-06-23T10:06:38.178Z,2.30
2018-06-23T10:08:42.721Z,3.57
2018-06-23T10:10:47.003Z,2.20
2018-06-23T10:12:51.579Z,1.93
2018-06-23T10:14:56.053Z,2.20
2018-06-23T10:17:00.302Z,1.43
2018-06-23T10:19:05.438Z,1.60
2018-06-23T10:21:09.700Z,2.43
2018-06-23T10:23:13.730Z,1.70
2018-06-23T10:25:17.725Z,2.37
2018-06-23T10:27:22.346Z,2.17
2018-06-23T10:29:26.870Z,2.30
2018-06-23T10:31:31.129Z,2.50
2018-06-23T10:33:35.729Z,4.63
2018-06-23T10:35:40.147Z,1.97
2018-06-23T10:37:44.481Z,2.43
2018-06-23T10:39:48.774Z,2.60
2018-06-23T10:41:53.072Z,1.70
2018-06-23T10:43:57.545Z,1.60
2018-06-23T10:46:01.862Z,2.03
2018-06-23T10:48:06.266Z,2.67
2018-06-23T10:50:10.581Z,2.30
2018-06-23T10:52:14.850Z,2.10
2018-06-23T10:54:19.145Z,2.00
2018-06-23T10:56:23.449Z,2.63
2018-06-23T10:58:27.970Z,2.10
2018-06-23T11:00:32.658Z,1.80
2018-06-23T11:02:36.666Z,2.47
2018-06-23T11:04:41.006Z,2.30
2018-06-23T11:06:45.381Z,1.53
2018-06-23T11:08:49.645Z,1.87
2018-06-23T11:10:53.657Z,1.83
2018-06-23T11:12:57.791Z,1.60
2018-06-23T11:15:02.522Z,2.37
2018-06-23T11:17:07.529Z,1.70
2018-06-23T11:19:12.177Z,1.90
2018-06-23T11:21:16.751Z,1.90
2018-06-23T11:23:21.019Z,1.60
2018-06-23T11:25:25.545Z,1.67
2018-06-23T11:27:30.027Z,2.13
2018-06-23T11:29:34.630Z,1.43
2018-06-23T11:31:39.112Z,1.60
2018-06-23T11:33:43.403Z,1.53
2018-06-23T11:35:47.998Z,1.87
2018-06-23T11:37:52.507Z,1.50
2018-06-23T11:39:56.781Z,1.20
2018-06-23T11:42:01.069Z,1.40
2018-06-23T11:44:05.887Z,1.30
2018-06-23T11:46:10.134Z,1.47
2018-06-23T11:48:14.417Z,1.70
2018-06-23T11:50:18.665Z,2.33
2018-06-23T11:52:23.250Z,2.47
2018-06-23T11:54:28.001Z,1.37
2018-06-23T11:56:31.969Z,2.13
2018-06-23T11:58:36.261Z,2.27
2018-06-23T12:00:40.566Z,2.57
2018-06-23T12:02:44.594Z,1.37
2018-06-23T12:04:48.865Z,2.20
2018-06-23T12:06:52.929Z,2.53
2018-06-23T12:08:57.566Z,2.73
2018-06-23T12:11:01.829Z,2.80
2018-06-23T12:13:06.549Z,3.20
2018-06-23T12:15:11.209Z,1.90
2018-06-23T12:17:15.781Z,2.53
2018-06-23T12:19:20.461Z,2.07
2018-06-23T12:21:25.074Z,2.40
2018-06-23T12:23:29.349Z,2.10
2018-06-23T12:25:33.804Z,1.87
2018-06-23T12:27:38.130Z,2.60
2018-06-23T12:29:42.429Z,2.63
2018-06-23T12:31:46.708Z,2.57
2018-06-23T12:33:51.151Z,2.57
2018-06-23T12:35:55.432Z,2.00
2018-06-23T12:38:00.062Z,2.20
2018-06-23T12:40:04.513Z,1.70
2018-06-23T12:42:09.115Z,1.37
2018-06-23T12:44:13.453Z,2.23
2018-06-23T12:46:17.822Z,2.10
2018-06-23T12:48:22.453Z,1.73
2018-06-23T12:50:26.933Z,2.10
2018-06-23T12:52:31.298Z,2.00
2018-06-23T12:54:35.886Z,2.73
2018-06-23T12:56:40.462Z,3.03
2018-06-23T12:58:44.803Z,2.83
2018-06-23T13:00:49.621Z,1.70
2018-06-23T13:02:54.005Z,1.83
2018-06-23T13:04:58.592Z,3.00
2018-06-23T13:07:03.165Z,3.20
2018-06-23T13:09:09.781Z,2.40
2018-06-23T13:11:14.042Z,3.00
2018-06-23T13:13:18.458Z,2.50
2018-06-23T13:15:23.076Z,2.93
2018-06-23T13:17:27.376Z,3.00
2018-06-23T13:19:31.640Z,2.90
2018-06-23T13:21:35.894Z,2.50
2018-06-23T13:23:40.210Z,2.07
2018-06-23T13:25:44.825Z,1.90
2018-06-23T13:27:49.064Z,2.60
2018-06-23T13:29:53.651Z,2.30
2018-06-23T13:31:58.282Z,2.00
2018-06-23T13:34:02.566Z,2.20
2018-06-23T13:36:06.813Z,1.80
2018-06-23T13:38:11.069Z,1.97
2018-06-23T13:40:15.302Z,2.50
2018-06-23T13:42:19.582Z,2.17
2018-06-23T13:44:24.278Z,2.07
2018-06-23T13:46:28.574Z,1.93
2018-06-23T13:48:32.903Z,2.60
2018-06-23T13:50:37.493Z,1.70
2018-06-23T13:52:41.725Z,3.13
2018-06-23T13:54:45.993Z,2.13
2018-06-23T13:56:50.342Z,2.37
2018-06-23T13:58:56.381Z,2.47
2018-06-23T14:01:00.749Z,3.10
2018-06-23T14:03:05.413Z,2.10
2018-06-23T14:05:09.653Z,2.40
2018-06-23T14:07:14.298Z,2.70
2018-06-23T14:09:18.986Z,2.77
2018-06-23T14:11:23.569Z,2.10
2018-06-23T14:13:28.160Z,1.93
2018-06-23T14:15:32.604Z,3.53
2018-06-23T14:17:36.896Z,2.87
2018-06-23T14:19:41.112Z,3.13
2018-06-23T14:21:45.466Z,3.47
2018-06-23T14:23:50.236Z,2.70
2018-06-23T14:25:54.563Z,3.50
2018-06-23T14:27:58.850Z,3.60
2018-06-23T14:30:03.527Z,5.30
2018-06-23T14:32:08.061Z,3.13
2018-06-23T14:34:12.286Z,3.63
2018-06-23T14:36:16.836Z,3.37
2018-06-23T14:38:21.633Z,1.67
2018-06-23T14:40:25.882Z,2.80
2018-06-23T14:42:30.149Z,3.23
2018-06-23T14:44:34.209Z,2.53
2018-06-23T14:46:38.729Z,2.50
2018-06-23T14:48:43.365Z,2.13
2018-06-23T14:50:47.654Z,3.43
2018-06-23T14:52:51.906Z,3.30
2018-06-23T14:54:56.182Z,3.17
2018-06-23T14:57:00.788Z,2.93
2018-06-23T14:59:05.265Z,2.60
2018-06-23T15:01:09.613Z,2.93
2018-06-23T15:03:14.190Z,2.77
2018-06-23T15:05:18.221Z,2.70
2018-06-23T15:07:22.483Z,2.83
2018-06-23T15:09:37.960Z,2.43
2018-06-23T15:11:53.207Z,3.20
2018-06-23T15:13:57.219Z,3.40
2018-06-23T15:16:01.506Z,2.33
2018-06-23T15:18:06.089Z,2.07
2018-06-23T15:20:10.400Z,1.70
2018-06-23T15:22:14.763Z,2.63
2018-06-23T15:24:19.649Z,2.70
2018-06-23T15:26:24.258Z,2.60
2018-06-23T15:28:28.503Z,2.53
2018-06-23T15:30:34.505Z,1.83
2018-06-23T15:32:38.773Z,3.10
2018-06-23T15:34:43.645Z,2.37
2018-06-23T15:36:48.222Z,3.03
2018-06-23T15:38:52.229Z,2.70
2018-06-23T15:40:56.353Z,2.90
2018-06-23T15:43:00.613Z,3.03
2018-06-23T15:45:05.279Z,2.33
2018-06-23T15:47:09.676Z,2.83
2018-06-23T15:49:14.134Z,3.00
2018-06-23T15:51:19.458Z,3.67
2018-06-23T15:53:23.945Z,3.93
2018-06-23T15:55:28.521Z,2.70
2018-06-23T15:57:33.106Z,2.80
2018-06-23T15:59:37.370Z,3.13
2018-06-23T16:01:41.669Z,1.90
2018-06-23T16:03:45.933Z,3.30
2018-06-23T16:05:50.262Z,3.37
2018-06-23T16:07:54.543Z,3.90
2018-06-23T16:09:58.818Z,4.00
2018-06-23T16:12:03.457Z,3.70
2018-06-23T16:14:08.138Z,4.27
2018-06-23T16:16:12.424Z,3.50
2018-06-23T16:18:16.841Z,3.63
2018-06-23T16:20:21.162Z,3.47
2018-06-23T16:22:25.438Z,3.33
2018-06-23T16:24:29.458Z,5.33
2018-06-23T16:26:33.695Z,3.83
2018-06-23T16:28:38.035Z,4.57
2018-06-23T16:30:42.462Z,3.50
2018-06-23T16:32:46.712Z,4.50
2018-06-23T16:34:51.495Z,3.47
2018-06-23T16:36:55.836Z,3.97
2018-06-23T16:39:00.459Z,2.20
2018-06-23T16:41:04.567Z,5.13
2018-06-23T16:43:08.805Z,4.50
2018-06-23T16:45:13.082Z,3.40
2018-06-23T16:47:17.550Z,3.50
2018-06-23T16:49:21.810Z,6.90
2018-06-23T16:51:26.502Z,4.07
2018-06-23T16:53:30.994Z,4.43
2018-06-23T16:55:35.284Z,5.33
2018-06-23T16:57:40.030Z,3.90
2018-06-23T16:59:44.298Z,3.17
2018-06-23T17:01:48.534Z,4.47
2018-06-23T17:03:52.920Z,5.00
2018-06-23T17:05:57.403Z,4.87
2018-06-23T17:08:01.658Z,5.40
2018-06-23T17:10:05.669Z,4.37
2018-06-23T17:12:09.925Z,5.30
2018-06-23T17:14:14.210Z,6.10
2018-06-23T17:16:18.461Z,4.37
2018-06-23T17:18:23.042Z,3.60
2018-06-23T17:20:27.302Z,3.37
2018-06-23T17:22:31.591Z,5.27
2018-06-23T17:24:35.877Z,5.30
2018-06-23T17:26:40.122Z,5.80
2018-06-23T17:28:44.694Z,5.20
2018-06-23T17:30:49.011Z,4.63
2018-06-23T17:32:53.326Z,5.03
2018-06-23T17:34:57.828Z,4.33
2018-06-23T17:37:02.634Z,5.93
2018-06-23T17:39:08.290Z,6.07
2018-06-23T17:41:12.606Z,7.27
2018-06-23T17:43:17.365Z,3.53
2018-06-23T17:45:21.782Z,2.80
2018-06-23T17:47:26.507Z,4.73
2018-06-23T17:49:30.829Z,5.23
2018-06-23T17:51:35.215Z,4.23
2018-06-23T17:53:40.217Z,7.27
2018-06-23T17:55:44.477Z,2.90
2018-06-23T17:57:49.735Z,4.10
2018-06-23T17:59:54.038Z,5.33
2018-06-23T18:01:58.349Z,4.90
2018-06-23T18:04:03.334Z,3.67
2018-06-23T18:06:07.713Z,3.77
2018-06-23T18:08:12.461Z,3.53
2018-06-23T18:10:16.917Z,5.33
2018-06-23T18:12:21.210Z,5.00
2018-06-23T18:14:25.542Z,4.60
2018-06-23T18:16:30.126Z,4.40
2018-06-23T18:18:35.666Z,2.80
2018-06-23T18:20:40.000Z,3.30
2018-06-23T18:22:44.481Z,3.87
2018-06-23T18:24:49.002Z,3.60
2018-06-23T18:26:53.694Z,2.67
2018-06-23T18:28:57.700Z,3.13
2018-06-23T18:31:02.301Z,4.50
2018-06-23T18:33:07.565Z,4.23
2018-06-23T18:35:11.841Z,3.10
2018-06-23T18:37:16.357Z,4.00
2018-06-23T18:39:20.747Z,2.40
2018-06-23T18:41:24.981Z,3.07
2018-06-23T18:43:29.271Z,2.30
2018-06-23T18:45:33.522Z,2.30
2018-06-23T18:47:37.785Z,1.80
2018-06-23T18:49:42.095Z,2.73
2018-06-23T18:51:46.443Z,2.97
2018-06-23T18:53:50.450Z,3.10
2018-06-23T18:55:54.944Z,2.53
2018-06-23T18:57:59.210Z,2.50
2018-06-23T19:00:03.496Z,2.80
2018-06-23T19:02:07.766Z,1.50
2018-06-23T19:04:12.356Z,2.97
2018-06-23T19:06:16.710Z,3.23
2018-06-23T19:08:21.118Z,3.27
2018-06-23T19:10:25.437Z,3.40
2018-06-23T19:12:29.673Z,3.47
2018-06-23T19:14:33.974Z,2.07
2018-06-23T19:16:38.234Z,2.40
2018-06-23T19:18:42.569Z,3.07
2018-06-23T19:20:47.126Z,2.60
2018-06-23T19:22:51.801Z,2.10
2018-06-23T19:24:56.261Z,2.33
2018-06-23T19:27:00.582Z,4.23
2018-06-23T19:29:04.847Z,3.43
2018-06-23T19:31:09.453Z,2.77
2018-06-23T19:33:13.698Z,3.33
2018-06-23T19:35:17.959Z,3.00
2018-06-23T19:37:22.793Z,3.20
2018-06-23T19:39:27.493Z,3.60
2018-06-23T19:41:31.725Z,2.93
2018-06-23T19:43:35.984Z,3.27
2018-06-23T19:45:40.633Z,3.07
2018-06-23T19:47:44.909Z,5.00
2018-06-23T19:49:49.145Z,4.30
2018-06-23T19:51:53.481Z,4.33
2018-06-23T19:53:57.788Z,3.57
2018-06-23T19:56:02.179Z,4.20
2018-06-23T19:58:06.802Z,3.30
2018-06-23T20:00:11.430Z,3.70
2018-06-23T20:02:15.699Z,3.57
2018-06-23T20:04:20.010Z,5.60
2018-06-23T20:06:24.418Z,3.90
2018-06-23T20:08:28.831Z,5.50
2018-06-23T20:10:33.086Z,5.77
2018-06-23T20:12:37.402Z,4.53
2018-06-23T20:14:41.748Z,5.33
2018-06-23T20:16:46.190Z,3.03
2018-06-23T20:18:50.485Z,4.73
2018-06-23T20:20:55.095Z,4.63
2018-06-23T20:22:59.495Z,5.50
2018-06-23T20:25:03.733Z,4.67
2018-06-23T20:27:08.134Z,3.47
2018-06-23T20:29:12.438Z,5.40
2018-06-23T20:31:17.030Z,6.10
2018-06-23T20:33:21.302Z,5.13
2018-06-23T20:35:25.541Z,4.50
2018-06-23T20:37:29.879Z,5.87
2018-06-23T20:39:34.113Z,5.00
2018-06-23T20:41:39.068Z,4.03
2018-06-23T20:43:43.804Z,4.20
2018-06-23T20:45:48.051Z,4.87
2018-06-23T20:47:52.604Z,5.77
2018-06-23T20:49:56.851Z,4.40
2018-06-23T20:52:01.510Z,4.27
2018-06-23T20:54:06.244Z,4.00
2018-06-23T20:56:10.446Z,4.50
2018-06-23T20:58:14.709Z,4.70
2018-06-23T21:00:18.994Z,6.87
2018-06-23T21:02:23.234Z,3.70
2018-06-23T21:04:27.481Z,5.53
2018-06-23T21:06:31.733Z,4.33
2018-06-23T21:08:36.026Z,5.27
2018-06-23T21:10:42.245Z,5.13
2018-06-23T21:12:46.653Z,4.27
2018-06-23T21:14:51.250Z,3.70
2018-06-23T21:16:55.495Z,3.90
2018-06-23T21:18:59.765Z,5.63
2018-06-23T21:21:04.041Z,3.77
2018-06-23T21:23:08.607Z,5.10
2018-06-23T21:25:13.233Z,5.60
2018-06-23T21:27:17.487Z,4.23
2018-06-23T21:29:21.690Z,3.50
2018-06-23T21:31:26.314Z,4.63
2018-06-23T21:33:31.068Z,5.30
2018-06-23T21:35:35.288Z,5.50
2018-06-23T21:37:39.645Z,5.33
2018-06-23T21:39:44.112Z,5.20
2018-06-23T21:41:48.432Z,5.87
2018-06-23T21:43:52.881Z,3.70
2018-06-23T21:45:57.109Z,3.83
2018-06-23T21:48:01.162Z,4.60
2018-06-23T21:50:05.274Z,4.13
2018-06-23T21:52:09.982Z,4.97
2018-06-23T21:54:14.286Z,3.97
2018-06-23T21:56:18.713Z,3.67
2018-06-23T21:58:23.355Z,3.80
2018-06-23T22:00:36.546Z,4.40
2018-06-23T22:02:40.579Z,3.97
2018-06-23T22:04:44.653Z,4.10
2018-06-23T22:06:48.862Z,4.47
2018-06-23T22:08:53.315Z,5.50
2018-06-23T22:10:57.623Z,2.23
2018-06-23T22:13:01.889Z,4.00
2018-06-23T22:15:06.156Z,4.27
2018-06-23T22:17:10.877Z,4.40
2018-06-23T22:19:15.110Z,3.37
2018-06-23T22:21:19.714Z,4.50
2018-06-23T22:23:23.746Z,3.33
2018-06-23T22:25:28.321Z,3.07
2018-06-23T22:27:32.921Z,4.23
2018-06-23T22:29:37.240Z,4.47
2018-06-23T22:31:42.002Z,3.43
2018-06-23T22:33:46.561Z,4.50
2018-06-23T22:35:50.904Z,4.23
2018-06-23T22:37:54.939Z,2.90
2018-06-23T22:39:59.492Z,4.00
2018-06-23T22:42:03.765Z,3.60
2018-06-23T22:44:08.702Z,4.30
2018-06-23T22:46:12.922Z,4.23
2018-06-23T22:48:17.185Z,3.73
2018-06-23T22:50:21.829Z,4.30
2018-06-23T22:52:26.130Z,3.23
2018-06-23T22:54:30.476Z,3.83
2018-06-23T22:56:34.926Z,3.50
2018-06-23T22:58:39.204Z,3.50
2018-06-23T23:00:43.517Z,4.30
2018-06-23T23:02:48.102Z,3.60
2018-06-23T23:04:52.418Z,3.57
2018-06-23T23:06:57.434Z,3.77
2018-06-23T23:09:01.910Z,4.90
2018-06-23T23:11:06.701Z,3.60
2018-06-23T23:13:10.930Z,3.37
2018-06-23T23:15:15.198Z,4.40
2018-06-23T23:17:20.336Z,4.23
2018-06-23T23:19:26.240Z,3.53
2018-06-23T23:21:30.701Z,3.30
2018-06-23T23:23:35.990Z,3.93
2018-06-23T23:25:40.206Z,4.50
2018-06-23T23:27:44.839Z,4.17
2018-06-23T23:29:49.774Z,4.37
2018-06-23T23:31:54.082Z,4.93
2018-06-23T23:33:58.483Z,3.40
2018-06-23T23:36:02.929Z,4.83
2018-06-23T23:38:07.174Z,4.73
2018-06-23T23:40:11.325Z,3.23
2018-06-23T23:42:15.534Z,4.80
2018-06-23T23:44:19.698Z,4.70
2018-06-23T23:46:24.142Z,4.10
2018-06-23T23:48:28.393Z,5.10
2018-06-23T23:50:33.095Z,3.67
2018-06-23T23:52:37.330Z,4.33
2018-06-23T23:54:41.588Z,4.70
2018-06-23T23:56:45.937Z,4.53
2018-06-23T23:58:50.499Z,6.83
